createdAt,value
2018-08-02T00:00:44.079Z,100.00
2018-08-02T00:03:13.062Z,100.00
2018-08-02T00:05:42.365Z,100.00
2018-08-02T00:08:11.440Z,100.00
2018-08-02T00:10:40.494Z,100.00
2018-08-02T00:13:09.709Z,100.00
2018-08-02T00:15:38.774Z,100.00
2018-08-02T00:18:07.797Z,100.00
2018-08-02T00:20:36.889Z,100.00
2018-08-02T00:23:05.870Z,100.00
2018-08-02T00:25:34.887Z,100.00
2018-08-02T00:28:03.986Z,100.00
2018-08-02T00:30:33.070Z,100.00
2018-08-02T00:33:02.310Z,100.00
2018-08-02T00:35:31.291Z,100.00
2018-08-02T00:38:00.326Z,100.00
2018-08-02T00:40:29.315Z,100.00
2018-08-02T00:42:58.271Z,100.00
2018-08-02T00:45:27.309Z,100.00
2018-08-02T00:47:56.334Z,100.00
2018-08-02T00:50:25.362Z,100.00
2018-08-02T00:52:54.332Z,100.00
2018-08-02T00:55:23.366Z,100.00
2018-08-02T00:57:52.424Z,100.00
2018-08-02T01:00:21.392Z,100.00
2018-08-02T01:02:50.387Z,100.00
2018-08-02T01:05:19.417Z,100.00
2018-08-02T01:07:48.380Z,100.00
2018-08-02T01:10:17.407Z,100.00
2018-08-02T01:12:46.421Z,100.00
2018-08-02T01:15:15.428Z,100.00
2018-08-02T01:17:44.494Z,100.00
2018-08-02T01:20:13.477Z,100.00
2018-08-02T01:22:42.568Z,100.00
2018-08-02T01:25:11.529Z,100.00
2018-08-02T01:27:40.540Z,100.00
2018-08-02T01:30:09.528Z,100.00
2018-08-02T01:32:38.543Z,100.00
2018-08-02T01:35:07.646Z,100.00
2018-08-02T01:37:36.654Z,100.00
2018-08-02T01:40:05.621Z,100.00
2018-08-02T01:42:34.651Z,100.00
2018-08-02T01:45:03.612Z,100.00
2018-08-02T01:47:32.641Z,100.00
2018-08-02T01:50:01.635Z,100.00
2018-08-02T01:52:30.730Z,100.00
2018-08-02T01:54:59.753Z,100.00
2018-08-02T01:57:28.712Z,100.00
2018-08-02T01:59:57.690Z,100.00
2018-08-02T02:02:26.708Z,100.00
2018-08-02T02:04:55.796Z,100.00
2018-08-02T02:07:24.752Z,100.00
2018-08-02T02:09:53.865Z,100.00
2018-08-02T02:12:22.888Z,100.00
2018-08-02T02:14:51.850Z,100.00
2018-08-02T02:17:20.874Z,100.00
2018-08-02T02:19:49.829Z,100.00
2018-08-02T02:22:18.839Z,100.00
2018-08-02T02:24:47.823Z,100.00
2018-08-02T02:27:16.780Z,100.00
2018-08-02T02:29:45.889Z,100.00
2018-08-02T02:32:14.912Z,100.00
2018-08-02T02:34:43.880Z,100.00
2018-08-02T02:37:12.930Z,100.00
2018-08-02T02:39:41.957Z,100.00
2018-08-02T02:42:11.039Z,100.00
2018-08-02T02:44:40.003Z,100.00
2018-08-02T02:47:08.969Z,100.00
2018-08-02T02:49:37.947Z,100.00
2018-08-02T02:52:06.974Z,100.00
2018-08-02T02:54:36.073Z,100.00
2018-08-02T02:57:05.041Z,100.00
2018-08-02T02:59:34.048Z,100.00
2018-08-02T03:02:03.093Z,100.00
2018-08-02T03:04:32.157Z,100.00
2018-08-02T03:07:01.188Z,100.00
2018-08-02T03:09:30.160Z,100.00
2018-08-02T03:11:59.174Z,100.00
2018-08-02T03:14:28.219Z,100.00
2018-08-02T03:16:57.189Z,100.00
2018-08-02T03:19:26.274Z,100.00
2018-08-02T03:21:55.244Z,100.00
2018-08-02T03:24:24.268Z,100.00
2018-08-02T03:26:53.393Z,100.00
2018-08-02T03:29:22.413Z,100.00
2018-08-02T03:31:51.505Z,100.00
2018-08-02T03:34:20.513Z,100.00
2018-08-02T03:36:49.475Z,100.00
2018-08-02T03:39:18.520Z,100.00
2018-08-02T03:41:47.471Z,100.00
2018-08-02T03:44:16.621Z,100.00
2018-08-02T03:47:16.762Z,100.00
2018-08-02T03:49:45.776Z,100.00
2018-08-02T03:52:14.757Z,100.00
2018-08-02T03:54:43.815Z,100.00
2018-08-02T03:57:12.848Z,100.00
2018-08-02T03:59:41.864Z,100.00
2018-08-02T04:02:10.893Z,100.00
2018-08-02T04:04:39.972Z,100.00
2018-08-02T04:07:09.008Z,100.00
2018-08-02T04:09:37.999Z,100.00
2018-08-02T04:12:07.105Z,100.00
2018-08-02T04:14:36.201Z,100.00
2018-08-02T04:17:05.164Z,100.00
2018-08-02T04:19:34.128Z,100.00
2018-08-02T04:22:03.185Z,100.00
2018-08-02T04:24:32.285Z,99.50
2018-08-02T04:27:01.312Z,99.20
2018-08-02T04:29:30.348Z,96.84
2018-08-02T04:31:59.363Z,96.22
2018-08-02T04:34:28.456Z,94.62
2018-08-02T04:36:57.484Z,93.34
2018-08-02T04:39:26.508Z,91.06
2018-08-02T04:41:56.430Z,81.58
2018-08-02T04:44:25.488Z,75.78
2018-08-02T04:46:54.583Z,73.23
2018-08-02T04:49:23.592Z,67.36
2018-08-02T04:51:52.605Z,68.21
2018-08-02T04:54:21.572Z,70.95
2018-08-02T04:56:50.587Z,72.87
2018-08-02T04:59:19.735Z,74.03
2018-08-02T05:01:48.798Z,73.81
2018-08-02T05:04:17.860Z,75.29
2018-08-02T05:06:46.897Z,77.28
2018-08-02T05:09:15.870Z,75.06
2018-08-02T05:11:44.952Z,70.97
2018-08-02T05:14:13.977Z,67.92
2018-08-02T05:16:42.957Z,63.28
2018-08-02T05:19:11.936Z,58.61
2018-08-02T05:21:41.028Z,55.91
2018-08-02T05:24:10.192Z,52.38
2018-08-02T05:26:39.249Z,50.25
2018-08-02T05:29:08.220Z,48.80
2018-08-02T05:31:37.260Z,46.97
2018-08-02T05:34:06.243Z,44.65
2018-08-02T05:36:35.705Z,45.43
2018-08-02T05:39:06.825Z,45.72
2018-08-02T05:41:35.961Z,47.15
2018-08-02T05:44:05.024Z,48.27
2018-08-02T05:46:34.069Z,48.32
2018-08-02T05:49:03.105Z,48.08
2018-08-02T05:51:32.338Z,47.09
2018-08-02T05:54:01.498Z,48.38
2018-08-02T05:56:30.469Z,48.63
2018-08-02T05:58:59.553Z,46.97
2018-08-02T06:01:28.714Z,47.10
2018-08-02T06:03:57.659Z,50.07
2018-08-02T06:06:26.700Z,52.24
2018-08-02T06:08:55.652Z,50.32
2018-08-02T06:11:24.609Z,48.31
2018-08-02T06:13:53.642Z,49.41
2018-08-02T06:16:22.669Z,53.50
2018-08-02T06:18:51.759Z,59.04
2018-08-02T06:21:20.733Z,62.67
2018-08-02T06:23:49.745Z,65.36
2018-08-02T06:26:18.791Z,67.22
2018-08-02T06:28:47.816Z,65.04
2018-08-02T06:31:16.914Z,64.28
2018-08-02T06:33:45.869Z,61.32
2018-08-02T06:36:14.924Z,61.36
2018-08-02T06:38:43.900Z,61.59
2018-08-02T06:41:13.093Z,62.99
2018-08-02T06:43:41.737Z,63.64
2018-08-02T06:46:13.600Z,64.79
2018-08-02T06:48:41.133Z,65.12
2018-08-02T06:51:10.222Z,66.05
2018-08-02T06:53:39.254Z,63.85
2018-08-02T06:56:08.344Z,62.20
2018-08-02T06:58:37.364Z,62.88
2018-08-02T07:01:06.413Z,62.26
2018-08-02T07:03:35.578Z,63.48
2018-08-02T07:06:04.599Z,63.29
2018-08-02T07:08:33.709Z,63.30
2018-08-02T07:11:02.689Z,63.54
2018-08-02T07:13:31.708Z,61.33
2018-08-02T07:16:00.742Z,60.64
2018-08-02T07:18:29.758Z,61.62
2018-08-02T07:20:58.808Z,61.56
2018-08-02T07:23:27.789Z,60.62
2018-08-02T07:25:56.749Z,58.98
2018-08-02T07:28:25.832Z,56.62
2018-08-02T07:30:55.196Z,57.01
2018-08-02T07:33:24.369Z,58.98
2018-08-02T07:35:53.433Z,59.68
2018-08-02T07:38:22.524Z,56.64
2018-08-02T07:40:51.508Z,57.08
2018-08-02T07:43:20.599Z,55.21
2018-08-02T07:45:49.658Z,55.67
2018-08-02T07:48:18.674Z,54.78
2018-08-02T07:50:47.701Z,53.54
2018-08-02T07:53:16.878Z,52.66
2018-08-02T07:55:45.961Z,51.13
2018-08-02T07:58:15.003Z,54.54
2018-08-02T08:00:44.026Z,57.90
2018-08-02T08:03:13.005Z,55.07
2018-08-02T08:05:42.045Z,57.12
2018-08-02T08:08:11.054Z,54.40
2018-08-02T08:10:40.094Z,56.09
2018-08-02T08:13:09.124Z,56.37
2018-08-02T08:15:38.132Z,54.61
2018-08-02T08:18:07.246Z,56.09
2018-08-02T08:20:36.208Z,56.67
2018-08-02T08:23:05.261Z,56.09
2018-08-02T08:25:34.571Z,55.50
2018-08-02T08:28:03.684Z,56.69
2018-08-02T08:30:32.745Z,56.69
2018-08-02T08:33:01.851Z,55.40
2018-08-02T08:35:30.889Z,56.55
2018-08-02T08:37:59.844Z,56.10
2018-08-02T08:40:28.873Z,56.90
2018-08-02T08:42:57.916Z,56.37
2018-08-02T08:45:27.050Z,56.74
2018-08-02T08:47:56.488Z,57.40
2018-08-02T08:50:25.487Z,54.19
2018-08-02T08:52:54.445Z,53.68
2018-08-02T08:55:23.437Z,52.94
2018-08-02T08:57:52.468Z,52.44
2018-08-02T09:00:21.601Z,54.03
2018-08-02T09:02:50.559Z,52.88
2018-08-02T09:05:19.566Z,54.10
2018-08-02T09:07:48.613Z,52.05
2018-08-02T09:10:17.626Z,52.58
2018-08-02T09:12:46.755Z,56.81
2018-08-02T09:15:15.713Z,51.15
2018-08-02T09:17:44.746Z,54.49
2018-08-02T09:20:13.777Z,54.58
2018-08-02T09:22:42.801Z,53.83
2018-08-02T09:25:11.822Z,57.54
2018-08-02T09:27:40.784Z,52.58
2018-08-02T09:30:09.816Z,52.95
2018-08-02T09:32:38.907Z,55.07
2018-08-02T09:35:07.800Z,53.59
2018-08-02T09:37:36.834Z,51.94
2018-08-02T09:40:05.984Z,51.42
2018-08-02T09:42:34.959Z,50.59
2018-08-02T09:45:04.000Z,49.14
2018-08-02T09:47:33.008Z,49.29
2018-08-02T09:50:02.105Z,49.59
2018-08-02T09:52:31.064Z,50.26
2018-08-02T09:55:00.040Z,51.90
2018-08-02T09:57:29.229Z,50.49
2018-08-02T09:59:58.211Z,50.73
2018-08-02T10:02:27.359Z,50.51
2018-08-02T10:04:56.406Z,50.53
2018-08-02T10:07:25.396Z,49.51
2018-08-02T10:09:54.544Z,48.66
2018-08-02T10:12:23.593Z,49.41
2018-08-02T10:14:52.633Z,50.61
2018-08-02T10:17:21.677Z,50.60
2018-08-02T10:19:50.713Z,48.49
2018-08-02T10:22:19.796Z,47.38
2018-08-02T10:24:48.847Z,47.13
2018-08-02T10:27:17.831Z,45.76
2018-08-02T10:29:46.864Z,45.31
2018-08-02T10:32:15.920Z,43.44
2018-08-02T10:34:44.961Z,41.24
2018-08-02T10:37:13.953Z,44.12
2018-08-02T10:39:43.004Z,41.08
2018-08-02T10:42:12.002Z,42.76
2018-08-02T10:44:41.042Z,43.35
2018-08-02T10:47:10.123Z,43.09
2018-08-02T10:49:39.092Z,43.17
2018-08-02T10:52:08.073Z,42.25
2018-08-02T10:54:37.113Z,40.53
2018-08-02T10:57:06.083Z,41.37
2018-08-02T10:59:35.171Z,40.01
2018-08-02T11:02:04.305Z,41.00
2018-08-02T11:04:33.297Z,41.25
2018-08-02T11:07:02.369Z,44.21
2018-08-02T11:09:31.456Z,38.41
2018-08-02T11:12:00.612Z,37.45
2018-08-02T11:14:29.596Z,35.63
2018-08-02T11:16:58.620Z,36.10
2018-08-02T11:19:27.602Z,37.77
2018-08-02T11:21:56.570Z,39.37
2018-08-02T11:24:25.632Z,40.34
2018-08-02T11:26:54.655Z,43.14
2018-08-02T11:29:23.636Z,44.02
2018-08-02T11:31:52.682Z,42.92
2018-08-02T11:34:21.652Z,42.23
2018-08-02T11:36:50.746Z,40.64
2018-08-02T11:39:19.779Z,37.66
2018-08-02T11:41:48.746Z,35.20
2018-08-02T11:44:17.772Z,36.19
2018-08-02T11:46:46.741Z,36.38
2018-08-02T11:49:15.846Z,32.80
2018-08-02T11:51:44.833Z,33.72
2018-08-02T11:54:13.884Z,35.86
2018-08-02T11:56:42.938Z,33.60
2018-08-02T11:59:12.010Z,33.14
2018-08-02T12:01:41.069Z,32.83
2018-08-02T12:04:10.145Z,30.79
2018-08-02T12:06:39.171Z,30.08
2018-08-02T12:09:10.451Z,28.79
2018-08-02T12:11:39.476Z,28.71
2018-08-02T12:14:08.561Z,28.27
2018-08-02T12:16:37.705Z,29.60
2018-08-02T12:19:07.158Z,26.95
2018-08-02T12:21:36.249Z,29.00
2018-08-02T12:24:05.521Z,28.19
2018-08-02T12:26:34.688Z,29.61
2018-08-02T12:29:03.717Z,29.63
2018-08-02T12:31:32.654Z,28.47
2018-08-02T12:34:01.682Z,30.90
2018-08-02T12:36:30.640Z,28.55
2018-08-02T12:38:59.741Z,29.36
2018-08-02T12:41:28.763Z,29.54
2018-08-02T12:43:57.793Z,27.35
2018-08-02T12:46:26.820Z,28.57
2018-08-02T12:48:55.884Z,29.53
2018-08-02T12:51:24.919Z,28.40
2018-08-02T12:53:53.989Z,30.44
2018-08-02T12:56:23.018Z,29.86
2018-08-02T12:58:52.562Z,31.16
2018-08-02T13:01:21.906Z,28.95
2018-08-02T13:03:50.975Z,29.88
2018-08-02T13:06:20.052Z,28.63
2018-08-02T13:08:48.997Z,28.77
2018-08-02T13:11:17.964Z,30.84
2018-08-02T13:13:46.912Z,30.02
2018-08-02T13:16:15.928Z,29.15
2018-08-02T13:18:44.873Z,28.38
2018-08-02T13:21:13.823Z,28.25
2018-08-02T13:23:42.861Z,29.51
2018-08-02T13:26:11.803Z,28.59
2018-08-02T13:28:40.836Z,28.40
2018-08-02T13:31:09.803Z,28.82
2018-08-02T13:33:38.820Z,28.87
2018-08-02T13:36:07.880Z,28.98
2018-08-02T13:38:36.844Z,28.10
2018-08-02T13:41:05.933Z,29.71
2018-08-02T13:43:34.941Z,30.02
2018-08-02T13:46:03.901Z,31.06
2018-08-02T13:48:32.955Z,31.82
2018-08-02T13:51:01.985Z,33.28
2018-08-02T13:53:31.019Z,32.79
2018-08-02T13:55:59.976Z,31.48
2018-08-02T13:58:29.248Z,32.36
2018-08-02T14:00:58.223Z,30.40
2018-08-02T14:03:27.172Z,31.60
2018-08-02T14:05:56.328Z,32.90
2018-08-02T14:08:25.332Z,34.34
2018-08-02T14:10:54.359Z,37.80
2018-08-02T14:13:23.325Z,37.82
2018-08-02T14:15:52.376Z,38.72
2018-08-02T14:18:21.546Z,41.32
2018-08-02T14:20:50.549Z,41.30
2018-08-02T14:23:19.544Z,44.82
2018-08-02T14:25:48.505Z,45.56
2018-08-02T14:28:17.512Z,46.25
2018-08-02T14:30:46.595Z,44.98
2018-08-02T14:33:15.666Z,45.87
2018-08-02T14:35:44.667Z,45.95
2018-08-02T14:38:13.688Z,47.84
2018-08-02T14:40:42.818Z,46.82
2018-08-02T14:43:11.863Z,48.69
2018-08-02T14:45:40.879Z,46.40
2018-08-02T14:48:09.923Z,47.00
2018-08-02T14:50:38.953Z,46.24
2018-08-02T14:53:07.980Z,48.58
2018-08-02T14:55:37.068Z,46.53
2018-08-02T14:58:06.228Z,46.44
2018-08-02T15:00:35.186Z,48.78
2018-08-02T15:03:04.207Z,49.02
2018-08-02T15:05:33.274Z,49.50
2018-08-02T15:08:02.345Z,50.60
2018-08-02T15:10:31.319Z,50.70
2018-08-02T15:13:00.344Z,51.26
2018-08-02T15:15:29.495Z,48.19
2018-08-02T15:17:58.500Z,48.87
2018-08-02T15:20:27.512Z,47.36
2018-08-02T15:22:56.581Z,48.40
2018-08-02T15:25:25.524Z,50.10
2018-08-02T15:27:54.548Z,50.94
2018-08-02T15:30:23.745Z,49.13
2018-08-02T15:32:52.691Z,51.01
2018-08-02T15:35:21.665Z,50.10
2018-08-02T15:37:50.631Z,50.51
2018-08-02T15:40:19.624Z,51.31
2018-08-02T15:42:48.607Z,53.40
2018-08-02T15:45:17.629Z,51.57
2018-08-02T15:47:46.710Z,52.94
2018-08-02T15:50:15.786Z,49.26
2018-08-02T15:52:44.760Z,49.37
2018-08-02T15:55:13.788Z,50.33
2018-08-02T15:58:13.664Z,51.04
2018-08-02T16:00:42.715Z,52.19
2018-08-02T16:03:11.741Z,52.55
2018-08-02T16:05:40.843Z,51.96
2018-08-02T16:08:09.804Z,52.84
2018-08-02T16:10:38.825Z,53.44
2018-08-02T16:13:08.008Z,52.87
2018-08-02T16:15:37.130Z,53.61
2018-08-02T16:18:06.318Z,53.74
2018-08-02T16:20:35.410Z,54.25
2018-08-02T16:23:04.418Z,54.17
2018-08-02T16:25:33.435Z,53.90
2018-08-02T16:28:02.393Z,55.28
2018-08-02T16:30:31.529Z,56.31
2018-08-02T16:33:00.567Z,56.82
2018-08-02T16:35:29.561Z,57.16
2018-08-02T16:37:58.554Z,57.39
2018-08-02T16:40:27.543Z,58.81
2018-08-02T16:42:56.598Z,60.17
2018-08-02T16:45:25.493Z,60.68
2018-08-02T16:47:54.476Z,59.48
2018-08-02T16:50:23.450Z,60.50
2018-08-02T16:52:52.473Z,60.12
2018-08-02T16:55:21.592Z,61.45
2018-08-02T16:57:50.567Z,61.93
2018-08-02T17:00:19.536Z,61.88
2018-08-02T17:02:48.545Z,63.27
2018-08-02T17:05:17.576Z,63.18
2018-08-02T17:07:46.565Z,63.52
2018-08-02T17:10:15.596Z,63.98
2018-08-02T17:12:44.684Z,64.20
2018-08-02T17:15:13.718Z,64.33
2018-08-02T17:17:42.813Z,65.15
2018-08-02T17:20:11.925Z,63.73
2018-08-02T17:22:40.926Z,64.84
2018-08-02T17:25:09.964Z,65.19
2018-08-02T17:27:38.940Z,66.05
2018-08-02T17:30:08.492Z,65.80
2018-08-02T17:32:37.455Z,66.49
2018-08-02T17:35:06.637Z,66.60
2018-08-02T17:37:36.052Z,68.91
2018-08-02T17:40:05.235Z,69.39
2018-08-02T17:42:34.264Z,72.18
2018-08-02T17:45:03.250Z,75.66
2018-08-02T17:47:32.229Z,76.44
2018-08-02T17:50:01.224Z,78.07
2018-08-02T17:52:30.184Z,78.53
2018-08-02T17:54:59.154Z,79.51
2018-08-02T17:57:28.139Z,81.38
2018-08-02T17:59:57.095Z,82.71
2018-08-02T18:02:26.225Z,82.16
2018-08-02T18:04:55.315Z,82.93
2018-08-02T18:07:24.945Z,83.04
2018-08-02T18:09:54.260Z,84.41
2018-08-02T18:12:23.346Z,83.81
2018-08-02T18:14:52.380Z,84.69
2018-08-02T18:17:21.400Z,85.20
2018-08-02T18:19:50.466Z,85.58
2018-08-02T18:22:19.754Z,86.27
2018-08-02T18:24:48.899Z,86.61
2018-08-02T18:27:17.883Z,86.85
2018-08-02T18:29:46.898Z,87.58
2018-08-02T18:32:15.894Z,87.21
2018-08-02T18:34:44.942Z,88.59
2018-08-02T18:37:14.002Z,87.71
2018-08-02T18:39:43.050Z,86.96
2018-08-02T18:42:12.022Z,86.33
2018-08-02T18:44:41.017Z,85.50
2018-08-02T18:47:10.256Z,85.36
2018-08-02T18:49:39.217Z,86.48
2018-08-02T18:52:08.378Z,85.64
2018-08-02T18:54:37.491Z,86.21
2018-08-02T18:57:06.886Z,87.48
2018-08-02T18:59:35.973Z,88.82
2018-08-02T19:02:05.093Z,89.18
2018-08-02T19:04:34.160Z,90.15
2018-08-02T19:07:03.159Z,89.49
2018-08-02T19:10:35.194Z,90.91
2018-08-02T19:13:04.176Z,91.05
2018-08-02T19:15:33.181Z,90.54
2018-08-02T19:18:02.246Z,89.95
2018-08-02T19:21:34.166Z,91.45
2018-08-02T19:24:03.217Z,92.11
2018-08-02T19:26:32.229Z,93.35
2018-08-02T19:29:01.213Z,92.93
2018-08-02T19:31:30.279Z,92.53
2018-08-02T19:33:59.309Z,92.53
2018-08-02T19:36:28.365Z,93.37
2018-08-02T19:38:57.398Z,93.92
2018-08-02T19:41:26.385Z,93.69
2018-08-02T19:43:55.409Z,94.39
2018-08-02T19:46:24.405Z,94.36
2018-08-02T19:48:53.468Z,94.19
2018-08-02T19:51:22.582Z,94.29
2018-08-02T19:53:51.625Z,95.41
2018-08-02T19:56:20.666Z,95.41
2018-08-02T19:58:49.653Z,95.59
2018-08-02T20:01:18.714Z,95.51
2018-08-02T20:03:47.726Z,95.23
2018-08-02T20:06:16.713Z,95.29
2018-08-02T20:08:45.689Z,97.08
2018-08-02T20:11:14.695Z,95.85
2018-08-02T20:13:43.722Z,94.90
2018-08-02T20:16:12.848Z,96.52
2018-08-02T20:18:41.820Z,95.65
2018-08-02T20:21:10.922Z,96.55
2018-08-02T20:23:39.933Z,96.76
2018-08-02T20:26:08.912Z,96.76
2018-08-02T20:28:37.872Z,97.14
2018-08-02T20:31:06.875Z,97.46
2018-08-02T20:33:35.957Z,97.63
2018-08-02T20:36:05.043Z,98.30
2018-08-02T20:38:34.078Z,98.44
2018-08-02T20:41:03.149Z,98.47
2018-08-02T20:43:32.190Z,98.63
2018-08-02T20:46:01.238Z,97.35
2018-08-02T20:48:30.342Z,97.31
2018-08-02T20:50:59.379Z,97.02
2018-08-02T20:53:28.428Z,96.95
2018-08-02T20:55:57.457Z,97.60
2018-08-02T20:58:26.506Z,98.42
2018-08-02T21:00:55.641Z,98.36
2018-08-02T21:03:24.717Z,97.70
2018-08-02T21:05:53.722Z,98.05
2018-08-02T21:08:22.712Z,98.12
2018-08-02T21:10:51.952Z,98.96
2018-08-02T21:13:21.094Z,97.79
2018-08-02T21:15:50.104Z,98.16
2018-08-02T21:18:19.073Z,97.80
2018-08-02T21:20:48.088Z,97.78
2018-08-02T21:23:17.089Z,97.79
2018-08-02T21:25:46.050Z,98.72
2018-08-02T21:28:15.025Z,97.92
2018-08-02T21:30:44.034Z,99.03
2018-08-02T21:33:13.009Z,98.18
2018-08-02T21:35:42.015Z,98.47
2018-08-02T21:38:11.052Z,98.06
2018-08-02T21:40:40.086Z,98.83
2018-08-02T21:43:09.082Z,98.24
2018-08-02T21:45:38.102Z,99.29
2018-08-02T21:48:07.222Z,98.53
2018-08-02T21:50:36.240Z,99.73
2018-08-02T21:53:05.249Z,99.82
2018-08-02T21:55:34.282Z,99.50
2018-08-02T21:58:03.274Z,99.31
2018-08-02T22:00:37.697Z,100.00
2018-08-02T22:03:07.264Z,100.00
2018-08-02T22:05:42.271Z,100.00
2018-08-02T22:08:13.177Z,100.00
2018-08-02T22:10:42.286Z,100.00
2018-08-02T22:14:14.976Z,100.00
2018-08-02T22:16:48.627Z,100.00
2018-08-02T22:19:17.608Z,100.00
2018-08-02T22:21:46.618Z,100.00
2018-08-02T22:24:15.642Z,100.00
2018-08-02T22:26:44.683Z,100.00
2018-08-02T22:29:13.742Z,100.00
2018-08-02T22:31:42.787Z,100.00
2018-08-02T22:34:11.891Z,100.00
2018-08-02T22:36:40.905Z,100.00
2018-08-02T22:39:10.905Z,100.00
2018-08-02T22:41:40.132Z,100.00
2018-08-02T22:44:09.163Z,100.00
2018-08-02T22:46:38.186Z,100.00
2018-08-02T22:49:07.218Z,100.00
2018-08-02T22:51:36.213Z,100.00
2018-08-02T22:54:05.183Z,100.00
2018-08-02T22:56:34.139Z,100.00
2018-08-02T22:59:03.173Z,100.00
2018-08-02T23:01:32.194Z,100.00
2018-08-02T23:04:01.225Z,100.00
2018-08-02T23:06:30.269Z,100.00
2018-08-02T23:08:59.243Z,100.00
2018-08-02T23:11:28.197Z,100.00
2018-08-02T23:13:57.168Z,100.00
2018-08-02T23:16:26.180Z,100.00
2018-08-02T23:18:55.223Z,100.00
2018-08-02T23:21:24.176Z,100.00
2018-08-02T23:23:53.228Z,100.00
2018-08-02T23:26:22.239Z,100.00
2018-08-02T23:28:51.261Z,100.00
2018-08-02T23:31:20.308Z,100.00
2018-08-02T23:33:49.391Z,100.00
2018-08-02T23:36:18.466Z,100.00
2018-08-02T23:38:47.512Z,100.00
2018-08-02T23:41:16.468Z,100.00
2018-08-02T23:43:45.529Z,100.00
2018-08-02T23:46:14.633Z,100.00
2018-08-02T23:48:43.636Z,100.00
2018-08-02T23:51:12.615Z,100.00
2018-08-02T23:53:41.701Z,100.00
2018-08-02T23:56:10.813Z,100.00
2018-08-02T23:58:39.769Z,100.00
